sensor_id;sensor_type;location;lat;lon;timestamp;temperature;humidity
36450;DHT22;22475;51.390;7.180;2023-07-22T00:00:38;20.10;90.10
36450;DHT22;22475;51.390;7.180;2023-07-22T00:03:04;20.10;90.10
36450;DHT22;22475;51.390;7.180;2023-07-22T00:05:31;20.10;90.10
36450;DHT22;22475;51.390;7.180;2023-07-22T00:07:57;20.10;90.10
36450;DHT22;22475;51.390;7.180;2023-07-22T00:10:24;20.10;90.10
36450;DHT22;22475;51.390;7.180;2023-07-22T00:12:52;20.10;90.10
36450;DHT22;22475;51.390;7.180;2023-07-22T00:15:18;20.10;90.10
36450;DHT22;22475;51.390;7.180;2023-07-22T00:17:45;20.10;90.10
36450;DHT22;22475;51.390;7.180;2023-07-22T00:20:12;20.10;90.10
36450;DHT22;22475;51.390;7.180;2023-07-22T00:22:41;20.10;90.10
36450;DHT22;22475;51.390;7.180;2023-07-22T00:25:09;20.10;90.10
36450;DHT22;22475;51.390;7.180;2023-07-22T00:27:36;20.10;90.10
36450;DHT22;22475;51.390;7.180;2023-07-22T00:30:05;20.10;90.10
36450;DHT22;22475;51.390;7.180;2023-07-22T00:32:32;20.10;90.10
36450;DHT22;22475;51.390;7.180;2023-07-22T00:34:59;20.10;90.10
36450;DHT22;22475;51.390;7.180;2023-07-22T00:37:25;20.10;90.10
36450;DHT22;22475;51.390;7.180;2023-07-22T00:39:52;20.10;90.10
36450;DHT22;22475;51.390;7.180;2023-07-22T00:42:19;20.10;90.10
36450;DHT22;22475;51.390;7.180;2023-07-22T00:44:46;20.10;90.10
36450;DHT22;22475;51.390;7.180;2023-07-22T00:47:14;20.10;90.10
36450;DHT22;22475;51.390;7.180;2023-07-22T00:49:40;20.10;90.10
36450;DHT22;22475;51.390;7.180;2023-07-22T00:52:07;20.00;90.10
36450;DHT22;22475;51.390;7.180;2023-07-22T00:54:34;20.00;90.10
36450;DHT22;22475;51.390;7.180;2023-07-22T00:57:00;20.00;90.10
36450;DHT22;22475;51.390;7.180;2023-07-22T00:59:27;20.00;90.10
36450;DHT22;22475;51.390;7.180;2023-07-22T01:01:54;20.00;90.10
36450;DHT22;22475;51.390;7.180;2023-07-22T01:04:22;20.00;90.10
36450;DHT22;22475;51.390;7.180;2023-07-22T01:06:52;20.00;90.10
36450;DHT22;22475;51.390;7.180;2023-07-22T01:09:19;20.00;90.10
36450;DHT22;22475;51.390;7.180;2023-07-22T01:11:45;20.00;90.10
36450;DHT22;22475;51.390;7.180;2023-07-22T01:14:12;20.00;90.00
36450;DHT22;22475;51.390;7.180;2023-07-22T01:16:39;20.00;90.10
36450;DHT22;22475;51.390;7.180;2023-07-22T01:19:06;20.00;90.10
36450;DHT22;22475;51.390;7.180;2023-07-22T01:21:35;19.90;90.00
36450;DHT22;22475;51.390;7.180;2023-07-22T01:24:04;20.00;90.00
36450;DHT22;22475;51.390;7.180;2023-07-22T01:26:31;20.00;90.10
36450;DHT22;22475;51.390;7.180;2023-07-22T01:29:06;20.00;90.00
36450;DHT22;22475;51.390;7.180;2023-07-22T01:31:34;20.00;90.00
36450;DHT22;22475;51.390;7.180;2023-07-22T01:34:00;20.00;90.40
36450;DHT22;22475;51.390;7.180;2023-07-22T01:36:29;20.00;90.00
36450;DHT22;22475;51.390;7.180;2023-07-22T01:38:55;20.00;90.10
36450;DHT22;22475;51.390;7.180;2023-07-22T01:41:23;20.00;90.00
36450;DHT22;22475;51.390;7.180;2023-07-22T01:43:50;19.90;90.00
36450;DHT22;22475;51.390;7.180;2023-07-22T01:46:17;20.00;90.00
36450;DHT22;22475;51.390;7.180;2023-07-22T01:48:43;19.90;90.00
36450;DHT22;22475;51.390;7.180;2023-07-22T01:51:10;19.90;90.00
36450;DHT22;22475;51.390;7.180;2023-07-22T01:53:36;19.90;90.00
36450;DHT22;22475;51.390;7.180;2023-07-22T01:56:03;19.90;90.00
36450;DHT22;22475;51.390;7.180;2023-07-22T01:58:31;19.90;90.00
36450;DHT22;22475;51.390;7.180;2023-07-22T02:00:58;19.90;90.00
36450;DHT22;22475;51.390;7.180;2023-07-22T02:03:24;19.90;90.00
36450;DHT22;22475;51.390;7.180;2023-07-22T02:05:51;19.90;90.00
36450;DHT22;22475;51.390;7.180;2023-07-22T02:08:18;19.90;90.00
36450;DHT22;22475;51.390;7.180;2023-07-22T02:10:45;19.90;90.00
36450;DHT22;22475;51.390;7.180;2023-07-22T02:13:11;19.90;90.00
36450;DHT22;22475;51.390;7.180;2023-07-22T02:15:40;19.90;90.00
36450;DHT22;22475;51.390;7.180;2023-07-22T02:18:07;19.90;90.00
36450;DHT22;22475;51.390;7.180;2023-07-22T02:20:33;19.90;90.00
36450;DHT22;22475;51.390;7.180;2023-07-22T02:23:00;19.90;90.00
36450;DHT22;22475;51.390;7.180;2023-07-22T02:25:27;19.90;90.00
36450;DHT22;22475;51.390;7.180;2023-07-22T02:27:53;19.90;90.00
36450;DHT22;22475;51.390;7.180;2023-07-22T02:30:20;19.90;90.00
36450;DHT22;22475;51.390;7.180;2023-07-22T02:32:47;19.90;90.00
36450;DHT22;22475;51.390;7.180;2023-07-22T02:35:14;19.90;90.00
36450;DHT22;22475;51.390;7.180;2023-07-22T02:37:41;19.90;90.00
36450;DHT22;22475;51.390;7.180;2023-07-22T02:40:08;19.90;90.00
36450;DHT22;22475;51.390;7.180;2023-07-22T02:42:36;19.90;90.00
36450;DHT22;22475;51.390;7.180;2023-07-22T02:45:03;19.90;90.00
36450;DHT22;22475;51.390;7.180;2023-07-22T02:47:32;19.90;90.00
36450;DHT22;22475;51.390;7.180;2023-07-22T02:50:01;19.90;90.00
36450;DHT22;22475;51.390;7.180;2023-07-22T02:52:28;19.90;90.00
36450;DHT22;22475;51.390;7.180;2023-07-22T02:55:04;19.90;90.00
36450;DHT22;22475;51.390;7.180;2023-07-22T02:57:31;19.90;90.00
36450;DHT22;22475;51.390;7.180;2023-07-22T02:59:58;19.90;90.00
36450;DHT22;22475;51.390;7.180;2023-07-22T03:02:26;19.90;90.00
36450;DHT22;22475;51.390;7.180;2023-07-22T03:04:53;19.90;90.00
36450;DHT22;22475;51.390;7.180;2023-07-22T03:07:21;19.90;90.00
36450;DHT22;22475;51.390;7.180;2023-07-22T03:09:48;19.90;90.00
36450;DHT22;22475;51.390;7.180;2023-07-22T03:12:14;19.90;90.00
36450;DHT22;22475;51.390;7.180;2023-07-22T03:14:41;19.90;90.00
36450;DHT22;22475;51.390;7.180;2023-07-22T03:17:07;19.90;90.00
36450;DHT22;22475;51.390;7.180;2023-07-22T03:19:34;19.90;90.00
36450;DHT22;22475;51.390;7.180;2023-07-22T03:22:01;19.90;90.00
36450;DHT22;22475;51.390;7.180;2023-07-22T03:24:29;19.90;90.00
36450;DHT22;22475;51.390;7.180;2023-07-22T03:26:55;19.90;90.00
36450;DHT22;22475;51.390;7.180;2023-07-22T03:29:22;19.90;90.00
36450;DHT22;22475;51.390;7.180;2023-07-22T03:31:49;19.90;90.00
36450;DHT22;22475;51.390;7.180;2023-07-22T03:34:19;19.90;90.00
36450;DHT22;22475;51.390;7.180;2023-07-22T03:36:45;19.90;90.00
36450;DHT22;22475;51.390;7.180;2023-07-22T03:39:12;19.90;90.00
36450;DHT22;22475;51.390;7.180;2023-07-22T03:41:40;19.90;90.00
36450;DHT22;22475;51.390;7.180;2023-07-22T03:44:06;19.90;90.00
36450;DHT22;22475;51.390;7.180;2023-07-22T03:46:33;19.90;90.00
36450;DHT22;22475;51.390;7.180;2023-07-22T03:48:59;19.90;90.00
36450;DHT22;22475;51.390;7.180;2023-07-22T03:51:26;19.90;90.00
36450;DHT22;22475;51.390;7.180;2023-07-22T03:53:53;19.90;90.00
36450;DHT22;22475;51.390;7.180;2023-07-22T03:56:19;19.90;90.00
36450;DHT22;22475;51.390;7.180;2023-07-22T03:58:48;19.90;90.00
36450;DHT22;22475;51.390;7.180;2023-07-22T04:01:14;19.90;90.00
36450;DHT22;22475;51.390;7.180;2023-07-22T04:03:41;19.90;90.00
36450;DHT22;22475;51.390;7.180;2023-07-22T04:06:07;19.90;89.90
36450;DHT22;22475;51.390;7.180;2023-07-22T04:08:34;19.90;90.00
36450;DHT22;22475;51.390;7.180;2023-07-22T04:11:00;19.90;90.00
36450;DHT22;22475;51.390;7.180;2023-07-22T04:13:27;19.90;90.00
36450;DHT22;22475;51.390;7.180;2023-07-22T04:15:58;19.90;90.00
36450;DHT22;22475;51.390;7.180;2023-07-22T04:18:24;19.90;89.90
36450;DHT22;22475;51.390;7.180;2023-07-22T04:20:55;19.90;89.90
36450;DHT22;22475;51.390;7.180;2023-07-22T04:23:21;19.90;89.90
36450;DHT22;22475;51.390;7.180;2023-07-22T04:25:48;19.90;89.90
36450;DHT22;22475;51.390;7.180;2023-07-22T04:28:15;19.90;90.00
36450;DHT22;22475;51.390;7.180;2023-07-22T04:30:42;19.80;89.90
36450;DHT22;22475;51.390;7.180;2023-07-22T04:33:09;19.90;90.00
36450;DHT22;22475;51.390;7.180;2023-07-22T04:35:37;19.80;89.90
36450;DHT22;22475;51.390;7.180;2023-07-22T04:38:03;19.80;89.90
36450;DHT22;22475;51.390;7.180;2023-07-22T04:40:30;19.80;89.90
36450;DHT22;22475;51.390;7.180;2023-07-22T04:42:57;19.80;89.90
36450;DHT22;22475;51.390;7.180;2023-07-22T04:45:23;19.80;89.90
36450;DHT22;22475;51.390;7.180;2023-07-22T04:47:50;19.80;89.90
36450;DHT22;22475;51.390;7.180;2023-07-22T04:50:18;19.80;89.90
36450;DHT22;22475;51.390;7.180;2023-07-22T04:52:45;19.80;89.90
36450;DHT22;22475;51.390;7.180;2023-07-22T04:55:12;19.80;89.90
36450;DHT22;22475;51.390;7.180;2023-07-22T04:57:39;19.80;89.90
36450;DHT22;22475;51.390;7.180;2023-07-22T05:00:07;19.80;89.90
36450;DHT22;22475;51.390;7.180;2023-07-22T05:02:37;19.80;89.90
36450;DHT22;22475;51.390;7.180;2023-07-22T05:05:04;19.80;89.90
36450;DHT22;22475;51.390;7.180;2023-07-22T05:07:32;19.80;89.90
36450;DHT22;22475;51.390;7.180;2023-07-22T05:09:59;19.80;89.90
36450;DHT22;22475;51.390;7.180;2023-07-22T05:12:25;19.80;89.80
36450;DHT22;22475;51.390;7.180;2023-07-22T05:14:52;19.80;89.80
36450;DHT22;22475;51.390;7.180;2023-07-22T05:17:18;19.80;89.80
36450;DHT22;22475;51.390;7.180;2023-07-22T05:19:45;19.80;89.80
36450;DHT22;22475;51.390;7.180;2023-07-22T05:22:14;19.80;89.80
36450;DHT22;22475;51.390;7.180;2023-07-22T05:24:42;19.80;89.80
36450;DHT22;22475;51.390;7.180;2023-07-22T05:27:08;19.80;89.80
36450;DHT22;22475;51.390;7.180;2023-07-22T05:29:35;19.80;89.80
36450;DHT22;22475;51.390;7.180;2023-07-22T05:32:01;19.80;90.20
36450;DHT22;22475;51.390;7.180;2023-07-22T05:34:28;19.80;89.80
36450;DHT22;22475;51.390;7.180;2023-07-22T05:36:54;19.80;89.80
36450;DHT22;22475;51.390;7.180;2023-07-22T05:39:21;19.80;89.80
36450;DHT22;22475;51.390;7.180;2023-07-22T05:41:49;19.80;89.80
36450;DHT22;22475;51.390;7.180;2023-07-22T05:44:15;19.80;89.80
36450;DHT22;22475;51.390;7.180;2023-07-22T05:46:42;19.80;89.80
36450;DHT22;22475;51.390;7.180;2023-07-22T05:49:08;19.80;90.20
36450;DHT22;22475;51.390;7.180;2023-07-22T05:51:36;19.80;89.80
36450;DHT22;22475;51.390;7.180;2023-07-22T05:54:02;19.80;89.80
36450;DHT22;22475;51.390;7.180;2023-07-22T05:56:29;19.70;89.80
36450;DHT22;22475;51.390;7.180;2023-07-22T05:58:58;19.70;89.70
36450;DHT22;22475;51.390;7.180;2023-07-22T06:01:24;19.80;89.80
36450;DHT22;22475;51.390;7.180;2023-07-22T06:03:51;19.80;89.80
36450;DHT22;22475;51.390;7.180;2023-07-22T06:06:18;19.80;89.80
36450;DHT22;22475;51.390;7.180;2023-07-22T06:08:45;19.80;89.70
36450;DHT22;22475;51.390;7.180;2023-07-22T06:11:11;19.70;89.70
36450;DHT22;22475;51.390;7.180;2023-07-22T06:13:38;19.70;89.70
36450;DHT22;22475;51.390;7.180;2023-07-22T06:16:06;19.80;89.70
36450;DHT22;22475;51.390;7.180;2023-07-22T06:18:32;19.70;89.70
36450;DHT22;22475;51.390;7.180;2023-07-22T06:20:59;19.80;89.70
36450;DHT22;22475;51.390;7.180;2023-07-22T06:23:25;19.70;89.60
36450;DHT22;22475;51.390;7.180;2023-07-22T06:25:52;19.80;89.70
36450;DHT22;22475;51.390;7.180;2023-07-22T06:28:18;19.80;89.70
36450;DHT22;22475;51.390;7.180;2023-07-22T06:30:45;19.80;89.70
36450;DHT22;22475;51.390;7.180;2023-07-22T06:33:13;19.70;89.60
36450;DHT22;22475;51.390;7.180;2023-07-22T06:35:39;19.80;89.70
36450;DHT22;22475;51.390;7.180;2023-07-22T06:38:06;19.80;89.70
36450;DHT22;22475;51.390;7.180;2023-07-22T06:40:33;19.70;89.60
36450;DHT22;22475;51.390;7.180;2023-07-22T06:42:59;19.70;89.60
36450;DHT22;22475;51.390;7.180;2023-07-22T06:45:26;19.70;89.60
36450;DHT22;22475;51.390;7.180;2023-07-22T06:47:52;19.80;89.70
36450;DHT22;22475;51.390;7.180;2023-07-22T06:50:20;19.80;89.70
36450;DHT22;22475;51.390;7.180;2023-07-22T06:52:47;19.80;89.70
36450;DHT22;22475;51.390;7.180;2023-07-22T06:55:13;19.80;89.70
36450;DHT22;22475;51.390;7.180;2023-07-22T06:57:40;19.80;89.70
36450;DHT22;22475;51.390;7.180;2023-07-22T07:00:09;19.80;89.70
36450;DHT22;22475;51.390;7.180;2023-07-22T07:02:36;19.80;89.70
36450;DHT22;22475;51.390;7.180;2023-07-22T07:05:03;19.80;89.70
36450;DHT22;22475;51.390;7.180;2023-07-22T07:07:31;19.80;89.70
36450;DHT22;22475;51.390;7.180;2023-07-22T07:09:58;19.80;89.70
36450;DHT22;22475;51.390;7.180;2023-07-22T07:12:25;19.80;89.60
36450;DHT22;22475;51.390;7.180;2023-07-22T07:14:52;19.80;89.60
36450;DHT22;22475;51.390;7.180;2023-07-22T07:17:19;19.80;89.60
36450;DHT22;22475;51.390;7.180;2023-07-22T07:19:45;19.80;89.60
36450;DHT22;22475;51.390;7.180;2023-07-22T07:22:12;19.80;89.60
36450;DHT22;22475;51.390;7.180;2023-07-22T07:24:40;19.80;89.60
36450;DHT22;22475;51.390;7.180;2023-07-22T07:27:07;19.80;89.60
36450;DHT22;22475;51.390;7.180;2023-07-22T07:29:33;19.80;89.60
36450;DHT22;22475;51.390;7.180;2023-07-22T07:32:00;19.80;89.60
36450;DHT22;22475;51.390;7.180;2023-07-22T07:34:26;19.80;89.60
36450;DHT22;22475;51.390;7.180;2023-07-22T07:36:53;19.80;89.50
36450;DHT22;22475;51.390;7.180;2023-07-22T07:39:19;19.80;89.50
36450;DHT22;22475;51.390;7.180;2023-07-22T07:41:47;19.80;89.50
36450;DHT22;22475;51.390;7.180;2023-07-22T07:44:14;19.80;89.50
36450;DHT22;22475;51.390;7.180;2023-07-22T07:46:40;19.80;89.60
36450;DHT22;22475;51.390;7.180;2023-07-22T07:49:07;19.90;89.70
36450;DHT22;22475;51.390;7.180;2023-07-22T07:51:33;19.80;89.60
36450;DHT22;22475;51.390;7.180;2023-07-22T07:54:00;19.90;89.60
36450;DHT22;22475;51.390;7.180;2023-07-22T07:56:29;19.90;89.60
36450;DHT22;22475;51.390;7.180;2023-07-22T07:58:57;19.90;89.70
36450;DHT22;22475;51.390;7.180;2023-07-22T08:01:23;19.80;89.50
36450;DHT22;22475;51.390;7.180;2023-07-22T08:03:50;19.90;89.60
36450;DHT22;22475;51.390;7.180;2023-07-22T08:06:17;19.90;89.60
36450;DHT22;22475;51.390;7.180;2023-07-22T08:08:43;19.90;89.60
36450;DHT22;22475;51.390;7.180;2023-07-22T08:11:10;19.90;89.60
36450;DHT22;22475;51.390;7.180;2023-07-22T08:13:38;19.90;89.60
36450;DHT22;22475;51.390;7.180;2023-07-22T08:16:07;19.90;89.60
36450;DHT22;22475;51.390;7.180;2023-07-22T08:18:34;19.90;89.60
36450;DHT22;22475;51.390;7.180;2023-07-22T08:21:01;19.90;89.60
36450;DHT22;22475;51.390;7.180;2023-07-22T08:23:28;19.90;89.60
36450;DHT22;22475;51.390;7.180;2023-07-22T08:25:54;19.90;89.60
36450;DHT22;22475;51.390;7.180;2023-07-22T08:28:21;19.90;89.60
36450;DHT22;22475;51.390;7.180;2023-07-22T08:30:48;19.90;89.50
36450;DHT22;22475;51.390;7.180;2023-07-22T08:33:16;19.90;89.50
36450;DHT22;22475;51.390;7.180;2023-07-22T08:35:42;19.90;89.50
36450;DHT22;22475;51.390;7.180;2023-07-22T08:38:09;19.90;89.50
36450;DHT22;22475;51.390;7.180;2023-07-22T08:40:36;19.90;89.50
36450;DHT22;22475;51.390;7.180;2023-07-22T08:43:03;19.90;89.50
36450;DHT22;22475;51.390;7.180;2023-07-22T08:45:31;19.90;89.60
36450;DHT22;22475;51.390;7.180;2023-07-22T08:47:59;19.90;89.50
36450;DHT22;22475;51.390;7.180;2023-07-22T08:50:37;19.90;90.10
36450;DHT22;22475;51.390;7.180;2023-07-22T08:53:08;19.90;89.60
36450;DHT22;22475;51.390;7.180;2023-07-22T08:55:34;19.90;89.50
36450;DHT22;22475;51.390;7.180;2023-07-22T08:58:01;19.90;89.50
36450;DHT22;22475;51.390;7.180;2023-07-22T09:00:28;19.90;89.50
36450;DHT22;22475;51.390;7.180;2023-07-22T09:02:54;19.90;89.50
36450;DHT22;22475;51.390;7.180;2023-07-22T09:05:21;19.90;89.50
36450;DHT22;22475;51.390;7.180;2023-07-22T09:07:49;19.90;90.10
36450;DHT22;22475;51.390;7.180;2023-07-22T09:10:16;19.90;89.50
36450;DHT22;22475;51.390;7.180;2023-07-22T09:12:44;19.90;89.50
36450;DHT22;22475;51.390;7.180;2023-07-22T09:15:11;19.90;89.50
36450;DHT22;22475;51.390;7.180;2023-07-22T09:17:38;19.90;89.50
36450;DHT22;22475;51.390;7.180;2023-07-22T09:20:06;19.90;89.50
36450;DHT22;22475;51.390;7.180;2023-07-22T09:22:33;19.90;89.50
36450;DHT22;22475;51.390;7.180;2023-07-22T09:25:13;19.90;89.50
36450;DHT22;22475;51.390;7.180;2023-07-22T09:27:40;19.90;90.10
36450;DHT22;22475;51.390;7.180;2023-07-22T09:30:19;19.90;89.50
36450;DHT22;22475;51.390;7.180;2023-07-22T09:32:46;19.90;89.50
36450;DHT22;22475;51.390;7.180;2023-07-22T09:35:13;19.90;89.50
36450;DHT22;22475;51.390;7.180;2023-07-22T09:37:39;19.90;89.50
36450;DHT22;22475;51.390;7.180;2023-07-22T09:40:14;19.90;89.50
36450;DHT22;22475;51.390;7.180;2023-07-22T09:42:43;19.90;89.50
36450;DHT22;22475;51.390;7.180;2023-07-22T09:45:09;19.90;89.50
36450;DHT22;22475;51.390;7.180;2023-07-22T09:47:39;19.90;89.50
36450;DHT22;22475;51.390;7.180;2023-07-22T09:50:06;19.90;89.50
36450;DHT22;22475;51.390;7.180;2023-07-22T09:52:32;19.90;89.50
36450;DHT22;22475;51.390;7.180;2023-07-22T09:54:59;19.90;89.50
36450;DHT22;22475;51.390;7.180;2023-07-22T09:57:27;19.90;89.50
36450;DHT22;22475;51.390;7.180;2023-07-22T09:59:54;19.90;89.40
36450;DHT22;22475;51.390;7.180;2023-07-22T10:02:21;19.90;89.40
36450;DHT22;22475;51.390;7.180;2023-07-22T10:04:48;20.00;89.50
36450;DHT22;22475;51.390;7.180;2023-07-22T10:07:16;19.90;89.50
36450;DHT22;22475;51.390;7.180;2023-07-22T10:09:43;19.90;89.50
36450;DHT22;22475;51.390;7.180;2023-07-22T10:12:09;19.90;89.40
36450;DHT22;22475;51.390;7.180;2023-07-22T10:14:38;19.90;89.40
36450;DHT22;22475;51.390;7.180;2023-07-22T10:17:05;19.90;89.50
36450;DHT22;22475;51.390;7.180;2023-07-22T10:19:32;19.90;89.40
36450;DHT22;22475;51.390;7.180;2023-07-22T10:21:59;19.90;89.50
36450;DHT22;22475;51.390;7.180;2023-07-22T10:24:26;19.90;89.40
36450;DHT22;22475;51.390;7.180;2023-07-22T10:26:53;19.90;89.40
36450;DHT22;22475;51.390;7.180;2023-07-22T10:29:20;19.90;89.40
36450;DHT22;22475;51.390;7.180;2023-07-22T10:31:48;20.00;89.50
36450;DHT22;22475;51.390;7.180;2023-07-22T10:34:20;20.00;89.50
36450;DHT22;22475;51.390;7.180;2023-07-22T10:36:47;19.90;89.50
36450;DHT22;22475;51.390;7.180;2023-07-22T10:39:24;20.00;89.50
36450;DHT22;22475;51.390;7.180;2023-07-22T10:41:51;19.90;89.50
36450;DHT22;22475;51.390;7.180;2023-07-22T10:44:25;20.00;89.50
36450;DHT22;22475;51.390;7.180;2023-07-22T10:46:57;20.00;89.50
36450;DHT22;22475;51.390;7.180;2023-07-22T10:49:24;20.00;89.50
36450;DHT22;22475;51.390;7.180;2023-07-22T10:51:53;20.00;89.50
36450;DHT22;22475;51.390;7.180;2023-07-22T10:54:33;20.00;89.50
36450;DHT22;22475;51.390;7.180;2023-07-22T10:57:02;20.00;89.50
36450;DHT22;22475;51.390;7.180;2023-07-22T10:59:32;20.00;90.10
36450;DHT22;22475;51.390;7.180;2023-07-22T11:02:00;20.00;89.50
36450;DHT22;22475;51.390;7.180;2023-07-22T11:04:26;20.00;89.50
36450;DHT22;22475;51.390;7.180;2023-07-22T11:07:02;20.00;89.50
36450;DHT22;22475;51.390;7.180;2023-07-22T11:09:36;20.00;89.50
36450;DHT22;22475;51.390;7.180;2023-07-22T11:12:04;20.00;89.50
36450;DHT22;22475;51.390;7.180;2023-07-22T11:14:31;20.00;89.50
36450;DHT22;22475;51.390;7.180;2023-07-22T11:17:00;20.00;89.50
36450;DHT22;22475;51.390;7.180;2023-07-22T11:19:27;20.00;89.50
36450;DHT22;22475;51.390;7.180;2023-07-22T11:21:54;20.00;89.50
36450;DHT22;22475;51.390;7.180;2023-07-22T11:24:21;20.00;89.50
36450;DHT22;22475;51.390;7.180;2023-07-22T11:26:48;20.00;89.50
36450;DHT22;22475;51.390;7.180;2023-07-22T11:29:15;20.00;89.50
36450;DHT22;22475;51.390;7.180;2023-07-22T11:31:42;20.00;89.50
36450;DHT22;22475;51.390;7.180;2023-07-22T11:34:12;20.00;89.50
36450;DHT22;22475;51.390;7.180;2023-07-22T11:36:39;20.00;89.50
36450;DHT22;22475;51.390;7.180;2023-07-22T11:39:06;20.00;89.40
36450;DHT22;22475;51.390;7.180;2023-07-22T11:41:33;20.00;89.40
36450;DHT22;22475;51.390;7.180;2023-07-22T11:44:00;20.00;89.40
36450;DHT22;22475;51.390;7.180;2023-07-22T11:46:27;20.00;89.40
36450;DHT22;22475;51.390;7.180;2023-07-22T11:48:54;20.00;89.40
36450;DHT22;22475;51.390;7.180;2023-07-22T11:51:23;20.10;89.50
36450;DHT22;22475;51.390;7.180;2023-07-22T11:53:50;20.00;89.40
36450;DHT22;22475;51.390;7.180;2023-07-22T11:56:17;20.00;89.40
36450;DHT22;22475;51.390;7.180;2023-07-22T11:58:48;20.10;89.40
36450;DHT22;22475;51.390;7.180;2023-07-22T12:01:14;20.00;89.40
36450;DHT22;22475;51.390;7.180;2023-07-22T12:03:41;20.00;89.40
36450;DHT22;22475;51.390;7.180;2023-07-22T12:06:08;20.00;89.40
36450;DHT22;22475;51.390;7.180;2023-07-22T12:08:36;20.10;89.50
36450;DHT22;22475;51.390;7.180;2023-07-22T12:11:03;20.00;89.40
36450;DHT22;22475;51.390;7.180;2023-07-22T12:13:35;20.00;89.40
36450;DHT22;22475;51.390;7.180;2023-07-22T12:16:02;20.00;90.00
36450;DHT22;22475;51.390;7.180;2023-07-22T12:18:40;20.00;89.40
36450;DHT22;22475;51.390;7.180;2023-07-22T12:21:07;20.10;89.40
36450;DHT22;22475;51.390;7.180;2023-07-22T12:23:36;20.10;89.40
36450;DHT22;22475;51.390;7.180;2023-07-22T12:26:02;20.10;89.40
36450;DHT22;22475;51.390;7.180;2023-07-22T12:28:29;20.00;89.40
36450;DHT22;22475;51.390;7.180;2023-07-22T12:30:55;20.00;89.40
36450;DHT22;22475;51.390;7.180;2023-07-22T12:33:23;20.10;89.40
36450;DHT22;22475;51.390;7.180;2023-07-22T12:35:50;20.10;89.50
36450;DHT22;22475;51.390;7.180;2023-07-22T12:38:17;20.10;89.40
36450;DHT22;22475;51.390;7.180;2023-07-22T12:40:45;20.10;89.40
36450;DHT22;22475;51.390;7.180;2023-07-22T12:43:11;20.00;89.40
36450;DHT22;22475;51.390;7.180;2023-07-22T12:45:38;20.10;90.10
36450;DHT22;22475;51.390;7.180;2023-07-22T12:48:04;20.10;89.50
36450;DHT22;22475;51.390;7.180;2023-07-22T12:50:32;20.00;89.40
36450;DHT22;22475;51.390;7.180;2023-07-22T12:52:58;20.00;89.40
36450;DHT22;22475;51.390;7.180;2023-07-22T12:55:25;20.00;89.40
36450;DHT22;22475;51.390;7.180;2023-07-22T12:57:53;20.10;89.40
36450;DHT22;22475;51.390;7.180;2023-07-22T13:00:19;20.10;89.50
36450;DHT22;22475;51.390;7.180;2023-07-22T13:02:46;20.10;89.50
36450;DHT22;22475;51.390;7.180;2023-07-22T13:05:13;20.10;89.50
36450;DHT22;22475;51.390;7.180;2023-07-22T13:07:40;20.10;89.50
36450;DHT22;22475;51.390;7.180;2023-07-22T13:10:07;20.10;89.50
36450;DHT22;22475;51.390;7.180;2023-07-22T13:12:36;20.10;89.50
36450;DHT22;22475;51.390;7.180;2023-07-22T13:15:04;20.10;89.50
36450;DHT22;22475;51.390;7.180;2023-07-22T13:17:31;20.10;89.50
36450;DHT22;22475;51.390;7.180;2023-07-22T13:19:58;20.10;89.50
36450;DHT22;22475;51.390;7.180;2023-07-22T13:22:24;20.10;89.50
36450;DHT22;22475;51.390;7.180;2023-07-22T13:24:51;20.10;89.50
36450;DHT22;22475;51.390;7.180;2023-07-22T13:27:18;20.10;89.50
36450;DHT22;22475;51.390;7.180;2023-07-22T13:29:44;20.10;89.50
36450;DHT22;22475;51.390;7.180;2023-07-22T13:32:13;20.10;89.50
36450;DHT22;22475;51.390;7.180;2023-07-22T13:34:39;20.10;89.50
36450;DHT22;22475;51.390;7.180;2023-07-22T13:37:06;20.10;89.50
36450;DHT22;22475;51.390;7.180;2023-07-22T13:39:32;20.10;89.50
36450;DHT22;22475;51.390;7.180;2023-07-22T13:41:59;20.10;89.50
36450;DHT22;22475;51.390;7.180;2023-07-22T13:44:25;20.10;89.50
36450;DHT22;22475;51.390;7.180;2023-07-22T13:46:52;20.10;89.50
36450;DHT22;22475;51.390;7.180;2023-07-22T13:49:20;20.10;89.50
36450;DHT22;22475;51.390;7.180;2023-07-22T13:51:47;20.10;89.50
36450;DHT22;22475;51.390;7.180;2023-07-22T13:54:13;20.10;89.50
36450;DHT22;22475;51.390;7.180;2023-07-22T13:56:41;20.10;89.50
36450;DHT22;22475;51.390;7.180;2023-07-22T13:59:08;20.10;89.50
36450;DHT22;22475;51.390;7.180;2023-07-22T14:01:36;20.10;89.50
36450;DHT22;22475;51.390;7.180;2023-07-22T14:04:02;20.10;89.50
36450;DHT22;22475;51.390;7.180;2023-07-22T14:06:30;20.10;89.50
36450;DHT22;22475;51.390;7.180;2023-07-22T14:08:57;20.10;89.50
36450;DHT22;22475;51.390;7.180;2023-07-22T14:11:24;20.10;89.50
36450;DHT22;22475;51.390;7.180;2023-07-22T14:13:50;20.10;89.50
36450;DHT22;22475;51.390;7.180;2023-07-22T14:16:17;20.10;89.50
36450;DHT22;22475;51.390;7.180;2023-07-22T14:18:44;20.10;89.50
36450;DHT22;22475;51.390;7.180;2023-07-22T14:21:11;20.10;89.50
36450;DHT22;22475;51.390;7.180;2023-07-22T14:23:39;20.10;89.50
36450;DHT22;22475;51.390;7.180;2023-07-22T14:26:05;20.10;89.50
36450;DHT22;22475;51.390;7.180;2023-07-22T14:28:32;20.10;89.60
36450;DHT22;22475;51.390;7.180;2023-07-22T14:30:59;20.10;89.50
36450;DHT22;22475;51.390;7.180;2023-07-22T14:33:26;20.10;89.50
36450;DHT22;22475;51.390;7.180;2023-07-22T14:35:52;20.10;89.50
36450;DHT22;22475;51.390;7.180;2023-07-22T14:38:19;20.10;89.50
36450;DHT22;22475;51.390;7.180;2023-07-22T14:40:47;20.10;89.50
36450;DHT22;22475;51.390;7.180;2023-07-22T14:43:13;20.10;89.60
36450;DHT22;22475;51.390;7.180;2023-07-22T14:45:40;20.10;89.50
36450;DHT22;22475;51.390;7.180;2023-07-22T14:48:06;20.10;89.50
36450;DHT22;22475;51.390;7.180;2023-07-22T14:50:33;20.10;89.60
36450;DHT22;22475;51.390;7.180;2023-07-22T14:52:59;20.10;89.60
36450;DHT22;22475;51.390;7.180;2023-07-22T14:55:26;20.10;89.50
36450;DHT22;22475;51.390;7.180;2023-07-22T14:57:54;20.20;89.60
36450;DHT22;22475;51.390;7.180;2023-07-22T15:00:21;20.10;89.50
36450;DHT22;22475;51.390;7.180;2023-07-22T15:02:48;20.10;89.50
36450;DHT22;22475;51.390;7.180;2023-07-22T15:05:15;20.10;89.70
36450;DHT22;22475;51.390;7.180;2023-07-22T15:07:41;20.20;89.60
36450;DHT22;22475;51.390;7.180;2023-07-22T15:10:08;20.10;89.50
36450;DHT22;22475;51.390;7.180;2023-07-22T15:12:34;20.10;89.50
36450;DHT22;22475;51.390;7.180;2023-07-22T15:15:02;20.10;89.50
36450;DHT22;22475;51.390;7.180;2023-07-22T15:17:31;20.20;89.60
36450;DHT22;22475;51.390;7.180;2023-07-22T15:19:59;20.10;89.50
36450;DHT22;22475;51.390;7.180;2023-07-22T15:22:25;20.10;89.50
36450;DHT22;22475;51.390;7.180;2023-07-22T15:24:52;20.20;89.60
36450;DHT22;22475;51.390;7.180;2023-07-22T15:27:19;20.10;89.50
36450;DHT22;22475;51.390;7.180;2023-07-22T15:29:45;20.20;89.60